sensor_id;sensor_type;location;lat;lon;timestamp;P1;durP1;ratioP1;P2;durP2;ratioP2
66118;SDS011;52912;48.564;9.302;2023-02-28T00:01:28;4.95;;;2.80;;
66118;SDS011;52912;48.564;9.302;2023-02-28T00:03:54;8.52;;;3.75;;
66118;SDS011;52912;48.564;9.302;2023-02-28T00:06:19;12.43;;;2.88;;
66118;SDS011;52912;48.564;9.302;2023-02-28T00:08:45;5.88;;;3.30;;
66118;SDS011;52912;48.564;9.302;2023-02-28T00:11:11;8.55;;;2.70;;
66118;SDS011;52912;48.564;9.302;2023-02-28T00:13:39;8.00;;;2.90;;
66118;SDS011;52912;48.564;9.302;2023-02-28T00:16:07;5.40;;;3.10;;
66118;SDS011;52912;48.564;9.302;2023-02-28T00:18:33;5.05;;;2.75;;
66118;SDS011;52912;48.564;9.302;2023-02-28T00:20:59;4.45;;;2.60;;
66118;SDS011;52912;48.564;9.302;2023-02-28T00:23:25;4.32;;;2.47;;
66118;SDS011;52912;48.564;9.302;2023-02-28T00:25:50;4.20;;;2.45;;
66118;SDS011;52912;48.564;9.302;2023-02-28T00:28:16;6.45;;;2.30;;
66118;SDS011;52912;48.564;9.302;2023-02-28T00:30:43;6.20;;;2.92;;
66118;SDS011;52912;48.564;9.302;2023-02-28T00:33:08;4.68;;;2.80;;
66118;SDS011;52912;48.564;9.302;2023-02-28T00:35:34;5.22;;;2.80;;
66118;SDS011;52912;48.564;9.302;2023-02-28T00:37:59;5.38;;;2.78;;
66118;SDS011;52912;48.564;9.302;2023-02-28T00:40:25;5.53;;;2.65;;
66118;SDS011;52912;48.564;9.302;2023-02-28T00:42:50;4.68;;;2.78;;
66118;SDS011;52912;48.564;9.302;2023-02-28T00:45:16;5.25;;;2.85;;
66118;SDS011;52912;48.564;9.302;2023-02-28T00:47:42;5.97;;;3.00;;
66118;SDS011;52912;48.564;9.302;2023-02-28T00:50:08;5.60;;;2.50;;
66118;SDS011;52912;48.564;9.302;2023-02-28T00:52:35;4.85;;;2.78;;
66118;SDS011;52912;48.564;9.302;2023-02-28T00:55:00;5.72;;;2.40;;
66118;SDS011;52912;48.564;9.302;2023-02-28T00:57:25;6.30;;;2.90;;
66118;SDS011;52912;48.564;9.302;2023-02-28T00:59:51;5.72;;;2.42;;
66118;SDS011;52912;48.564;9.302;2023-02-28T01:02:16;5.93;;;2.80;;
66118;SDS011;52912;48.564;9.302;2023-02-28T01:04:43;4.28;;;2.47;;
66118;SDS011;52912;48.564;9.302;2023-02-28T01:07:09;5.32;;;2.80;;
66118;SDS011;52912;48.564;9.302;2023-02-28T01:09:34;5.70;;;3.00;;
66118;SDS011;52912;48.564;9.302;2023-02-28T01:12:00;6.47;;;3.00;;
66118;SDS011;52912;48.564;9.302;2023-02-28T01:14:25;3.75;;;2.30;;
66118;SDS011;52912;48.564;9.302;2023-02-28T01:16:51;9.65;;;2.38;;
66118;SDS011;52912;48.564;9.302;2023-02-28T01:19:16;4.55;;;2.47;;
66118;SDS011;52912;48.564;9.302;2023-02-28T01:21:43;5.25;;;2.50;;
66118;SDS011;52912;48.564;9.302;2023-02-28T01:24:08;4.60;;;2.70;;
66118;SDS011;52912;48.564;9.302;2023-02-28T01:26:37;6.18;;;2.33;;
66118;SDS011;52912;48.564;9.302;2023-02-28T01:29:02;4.07;;;2.20;;
66118;SDS011;52912;48.564;9.302;2023-02-28T01:31:28;6.00;;;2.83;;
66118;SDS011;52912;48.564;9.302;2023-02-28T01:33:53;4.88;;;2.90;;
66118;SDS011;52912;48.564;9.302;2023-02-28T01:36:19;4.88;;;2.80;;
66118;SDS011;52912;48.564;9.302;2023-02-28T01:38:47;4.95;;;2.50;;
66118;SDS011;52912;48.564;9.302;2023-02-28T01:41:15;4.60;;;2.40;;
66118;SDS011;52912;48.564;9.302;2023-02-28T01:43:58;5.15;;;2.78;;
66118;SDS011;52912;48.564;9.302;2023-02-28T01:46:25;8.25;;;2.50;;
66118;SDS011;52912;48.564;9.302;2023-02-28T01:48:51;5.18;;;2.78;;
66118;SDS011;52912;48.564;9.302;2023-02-28T01:51:20;5.40;;;2.90;;
66118;SDS011;52912;48.564;9.302;2023-02-28T01:53:52;5.03;;;2.42;;
66118;SDS011;52912;48.564;9.302;2023-02-28T01:56:22;6.65;;;3.00;;
66118;SDS011;52912;48.564;9.302;2023-02-28T01:58:51;5.03;;;2.47;;
66118;SDS011;52912;48.564;9.302;2023-02-28T02:01:18;4.93;;;2.65;;
66118;SDS011;52912;48.564;9.302;2023-02-28T02:03:43;4.65;;;2.38;;
66118;SDS011;52912;48.564;9.302;2023-02-28T02:06:09;5.13;;;2.50;;
66118;SDS011;52912;48.564;9.302;2023-02-28T02:08:34;4.90;;;2.75;;
66118;SDS011;52912;48.564;9.302;2023-02-28T02:11:03;5.50;;;2.63;;
66118;SDS011;52912;48.564;9.302;2023-02-28T02:16:33;3.63;;;2.22;;
66118;SDS011;52912;48.564;9.302;2023-02-28T02:19:08;5.75;;;2.92;;
66118;SDS011;52912;48.564;9.302;2023-02-28T02:22:02;5.15;;;2.83;;
66118;SDS011;52912;48.564;9.302;2023-02-28T02:24:54;6.28;;;2.70;;
66118;SDS011;52912;48.564;9.302;2023-02-28T02:27:36;5.07;;;2.83;;
66118;SDS011;52912;48.564;9.302;2023-02-28T02:30:17;5.07;;;2.75;;
66118;SDS011;52912;48.564;9.302;2023-02-28T02:33:06;5.25;;;2.60;;
66118;SDS011;52912;48.564;9.302;2023-02-28T02:35:45;5.25;;;2.83;;
66118;SDS011;52912;48.564;9.302;2023-02-28T02:38:19;5.75;;;2.90;;
66118;SDS011;52912;48.564;9.302;2023-02-28T02:40:55;5.05;;;2.55;;
66118;SDS011;52912;48.564;9.302;2023-02-28T02:43:29;5.63;;;2.75;;
66118;SDS011;52912;48.564;9.302;2023-02-28T02:46:01;4.25;;;2.50;;
66118;SDS011;52912;48.564;9.302;2023-02-28T02:48:31;8.52;;;3.00;;
66118;SDS011;52912;48.564;9.302;2023-02-28T02:51:04;4.20;;;2.47;;
66118;SDS011;52912;48.564;9.302;2023-02-28T02:53:32;2.55;;;2.13;;
66118;SDS011;52912;48.564;9.302;2023-02-28T02:56:02;7.65;;;2.97;;
66118;SDS011;52912;48.564;9.302;2023-02-28T02:58:30;5.50;;;3.25;;
66118;SDS011;52912;48.564;9.302;2023-02-28T03:00:59;5.28;;;3.17;;
66118;SDS011;52912;48.564;9.302;2023-02-28T03:03:27;3.60;;;2.60;;
66118;SDS011;52912;48.564;9.302;2023-02-28T03:05:54;6.47;;;3.13;;
66118;SDS011;52912;48.564;9.302;2023-02-28T03:08:23;7.40;;;3.20;;
66118;SDS011;52912;48.564;9.302;2023-02-28T03:10:49;7.85;;;3.17;;
66118;SDS011;52912;48.564;9.302;2023-02-28T03:13:19;5.32;;;2.63;;
66118;SDS011;52912;48.564;9.302;2023-02-28T03:16:14;5.57;;;3.22;;
66118;SDS011;52912;48.564;9.302;2023-02-28T03:18:50;6.05;;;3.05;;
66118;SDS011;52912;48.564;9.302;2023-02-28T03:21:22;3.97;;;2.70;;
66118;SDS011;52912;48.564;9.302;2023-02-28T03:23:58;9.82;;;3.35;;
66118;SDS011;52912;48.564;9.302;2023-02-28T03:26:30;9.48;;;3.75;;
66118;SDS011;52912;48.564;9.302;2023-02-28T03:29:00;4.82;;;2.97;;
66118;SDS011;52912;48.564;9.302;2023-02-28T03:31:30;6.22;;;2.97;;
66118;SDS011;52912;48.564;9.302;2023-02-28T03:34:00;6.15;;;3.47;;
66118;SDS011;52912;48.564;9.302;2023-02-28T03:36:29;5.13;;;2.83;;
66118;SDS011;52912;48.564;9.302;2023-02-28T03:39:01;5.55;;;2.85;;
66118;SDS011;52912;48.564;9.302;2023-02-28T03:41:31;5.03;;;3.15;;
66118;SDS011;52912;48.564;9.302;2023-02-28T03:44:00;5.05;;;2.92;;
66118;SDS011;52912;48.564;9.302;2023-02-28T03:46:31;4.95;;;3.08;;
66118;SDS011;52912;48.564;9.302;2023-02-28T03:49:02;5.93;;;2.92;;
66118;SDS011;52912;48.564;9.302;2023-02-28T03:51:31;5.57;;;2.97;;
66118;SDS011;52912;48.564;9.302;2023-02-28T03:53:58;5.05;;;2.90;;
66118;SDS011;52912;48.564;9.302;2023-02-28T03:56:31;7.00;;;3.30;;
66118;SDS011;52912;48.564;9.302;2023-02-28T03:59:00;5.53;;;3.42;;
66118;SDS011;52912;48.564;9.302;2023-02-28T04:01:31;7.90;;;3.60;;
66118;SDS011;52912;48.564;9.302;2023-02-28T04:04:00;6.65;;;3.67;;
66118;SDS011;52912;48.564;9.302;2023-02-28T04:06:26;5.72;;;2.70;;
66118;SDS011;52912;48.564;9.302;2023-02-28T04:08:51;5.75;;;3.40;;
66118;SDS011;52912;48.564;9.302;2023-02-28T04:11:20;6.15;;;3.42;;
66118;SDS011;52912;48.564;9.302;2023-02-28T04:13:47;5.85;;;3.50;;
66118;SDS011;52912;48.564;9.302;2023-02-28T04:16:13;5.88;;;3.28;;
66118;SDS011;52912;48.564;9.302;2023-02-28T04:18:39;6.60;;;3.78;;
66118;SDS011;52912;48.564;9.302;2023-02-28T04:21:05;6.93;;;3.20;;
66118;SDS011;52912;48.564;9.302;2023-02-28T04:23:30;6.30;;;3.42;;
66118;SDS011;52912;48.564;9.302;2023-02-28T04:25:56;6.25;;;3.08;;
66118;SDS011;52912;48.564;9.302;2023-02-28T04:28:23;5.68;;;3.00;;
66118;SDS011;52912;48.564;9.302;2023-02-28T04:30:53;6.00;;;3.58;;
66118;SDS011;52912;48.564;9.302;2023-02-28T04:33:20;5.43;;;3.13;;
66118;SDS011;52912;48.564;9.302;2023-02-28T04:35:45;7.00;;;3.90;;
66118;SDS011;52912;48.564;9.302;2023-02-28T04:38:11;4.80;;;2.80;;
66118;SDS011;52912;48.564;9.302;2023-02-28T04:40:36;6.45;;;3.50;;
66118;SDS011;52912;48.564;9.302;2023-02-28T04:43:01;8.50;;;4.25;;
66118;SDS011;52912;48.564;9.302;2023-02-28T04:45:28;4.95;;;3.08;;
66118;SDS011;52912;48.564;9.302;2023-02-28T04:47:54;6.95;;;3.67;;
66118;SDS011;52912;48.564;9.302;2023-02-28T04:50:19;5.80;;;3.70;;
66118;SDS011;52912;48.564;9.302;2023-02-28T04:52:45;5.93;;;3.30;;
66118;SDS011;52912;48.564;9.302;2023-02-28T04:55:10;6.53;;;4.00;;
66118;SDS011;52912;48.564;9.302;2023-02-28T04:57:35;6.75;;;4.40;;
66118;SDS011;52912;48.564;9.302;2023-02-28T05:00:01;6.65;;;3.88;;
66118;SDS011;52912;48.564;9.302;2023-02-28T05:02:28;7.10;;;4.07;;
66118;SDS011;52912;48.564;9.302;2023-02-28T05:04:53;6.82;;;3.67;;
66118;SDS011;52912;48.564;9.302;2023-02-28T05:07:19;5.55;;;3.42;;
66118;SDS011;52912;48.564;9.302;2023-02-28T05:09:44;7.35;;;3.85;;
66118;SDS011;52912;48.564;9.302;2023-02-28T05:12:10;5.78;;;3.65;;
66118;SDS011;52912;48.564;9.302;2023-02-28T05:14:35;6.43;;;3.83;;
66118;SDS011;52912;48.564;9.302;2023-02-28T05:17:00;6.50;;;3.83;;
66118;SDS011;52912;48.564;9.302;2023-02-28T05:19:27;7.63;;;3.90;;
66118;SDS011;52912;48.564;9.302;2023-02-28T05:21:53;5.03;;;3.65;;
66118;SDS011;52912;48.564;9.302;2023-02-28T05:24:19;7.07;;;3.28;;
66118;SDS011;52912;48.564;9.302;2023-02-28T05:26:45;5.82;;;3.88;;
66118;SDS011;52912;48.564;9.302;2023-02-28T05:29:10;7.63;;;3.95;;
66118;SDS011;52912;48.564;9.302;2023-02-28T05:31:36;8.45;;;4.55;;
66118;SDS011;52912;48.564;9.302;2023-02-28T05:34:03;6.38;;;3.58;;
66118;SDS011;52912;48.564;9.302;2023-02-28T05:36:29;7.00;;;3.90;;
66118;SDS011;52912;48.564;9.302;2023-02-28T05:38:55;6.95;;;4.18;;
66118;SDS011;52912;48.564;9.302;2023-02-28T05:41:21;6.95;;;4.20;;
66118;SDS011;52912;48.564;9.302;2023-02-28T05:43:46;7.57;;;4.53;;
66118;SDS011;52912;48.564;9.302;2023-02-28T05:46:12;8.75;;;4.32;;
66118;SDS011;52912;48.564;9.302;2023-02-28T05:48:39;6.03;;;3.17;;
66118;SDS011;52912;48.564;9.302;2023-02-28T05:51:06;7.38;;;4.25;;
66118;SDS011;52912;48.564;9.302;2023-02-28T05:53:34;11.23;;;4.93;;
66118;SDS011;52912;48.564;9.302;2023-02-28T05:56:00;8.85;;;4.97;;
66118;SDS011;52912;48.564;9.302;2023-02-28T05:58:25;7.75;;;4.85;;
66118;SDS011;52912;48.564;9.302;2023-02-28T06:00:51;10.40;;;4.45;;
66118;SDS011;52912;48.564;9.302;2023-02-28T06:03:17;6.30;;;3.53;;
66118;SDS011;52912;48.564;9.302;2023-02-28T06:05:42;6.97;;;4.60;;
66118;SDS011;52912;48.564;9.302;2023-02-28T06:08:08;13.85;;;5.20;;
66118;SDS011;52912;48.564;9.302;2023-02-28T06:10:35;8.70;;;4.28;;
66118;SDS011;52912;48.564;9.302;2023-02-28T06:13:00;7.85;;;4.75;;
66118;SDS011;52912;48.564;9.302;2023-02-28T06:15:26;6.28;;;3.95;;
66118;SDS011;52912;48.564;9.302;2023-02-28T06:17:51;8.35;;;4.53;;
66118;SDS011;52912;48.564;9.302;2023-02-28T06:20:17;13.07;;;7.53;;
66118;SDS011;52912;48.564;9.302;2023-02-28T06:22:43;15.70;;;7.70;;
66118;SDS011;52912;48.564;9.302;2023-02-28T06:25:09;5.63;;;3.13;;
66118;SDS011;52912;48.564;9.302;2023-02-28T06:27:36;11.68;;;5.00;;
66118;SDS011;52912;48.564;9.302;2023-02-28T06:30:02;8.90;;;4.57;;
66118;SDS011;52912;48.564;9.302;2023-02-28T06:32:28;10.90;;;6.82;;
66118;SDS011;52912;48.564;9.302;2023-02-28T06:34:53;14.95;;;7.15;;
66118;SDS011;52912;48.564;9.302;2023-02-28T06:37:19;11.95;;;7.07;;
66118;SDS011;52912;48.564;9.302;2023-02-28T06:39:45;8.60;;;4.38;;
66118;SDS011;52912;48.564;9.302;2023-02-28T06:42:10;10.05;;;5.45;;
66118;SDS011;52912;48.564;9.302;2023-02-28T06:44:38;10.13;;;5.53;;
66118;SDS011;52912;48.564;9.302;2023-02-28T06:47:04;8.00;;;4.95;;
66118;SDS011;52912;48.564;9.302;2023-02-28T06:49:30;7.22;;;4.05;;
66118;SDS011;52912;48.564;9.302;2023-02-28T06:51:56;8.77;;;4.35;;
66118;SDS011;52912;48.564;9.302;2023-02-28T06:54:22;10.43;;;5.13;;
66118;SDS011;52912;48.564;9.302;2023-02-28T06:56:47;9.18;;;5.38;;
66118;SDS011;52912;48.564;9.302;2023-02-28T06:59:13;11.30;;;5.60;;
66118;SDS011;52912;48.564;9.302;2023-02-28T07:01:40;10.75;;;5.47;;
66118;SDS011;52912;48.564;9.302;2023-02-28T07:04:05;9.93;;;5.90;;
66118;SDS011;52912;48.564;9.302;2023-02-28T07:06:31;9.05;;;5.90;;
66118;SDS011;52912;48.564;9.302;2023-02-28T07:08:57;12.05;;;5.40;;
66118;SDS011;52912;48.564;9.302;2023-02-28T07:11:23;11.73;;;6.35;;
66118;SDS011;52912;48.564;9.302;2023-02-28T07:13:50;9.00;;;5.78;;
66118;SDS011;52912;48.564;9.302;2023-02-28T07:16:16;9.80;;;5.70;;
66118;SDS011;52912;48.564;9.302;2023-02-28T07:18:43;9.82;;;5.97;;
66118;SDS011;52912;48.564;9.302;2023-02-28T07:21:09;8.90;;;5.70;;
66118;SDS011;52912;48.564;9.302;2023-02-28T07:23:35;10.77;;;5.80;;
66118;SDS011;52912;48.564;9.302;2023-02-28T07:26:01;10.93;;;5.85;;
66118;SDS011;52912;48.564;9.302;2023-02-28T07:28:27;9.15;;;5.30;;
66118;SDS011;52912;48.564;9.302;2023-02-28T07:30:52;8.77;;;4.38;;
66118;SDS011;52912;48.564;9.302;2023-02-28T07:33:18;9.88;;;5.65;;
66118;SDS011;52912;48.564;9.302;2023-02-28T07:35:45;10.73;;;5.68;;
66118;SDS011;52912;48.564;9.302;2023-02-28T07:38:10;6.43;;;3.67;;
66118;SDS011;52912;48.564;9.302;2023-02-28T07:40:36;10.20;;;6.25;;
66118;SDS011;52912;48.564;9.302;2023-02-28T07:43:02;6.60;;;4.13;;
66118;SDS011;52912;48.564;9.302;2023-02-28T07:45:28;10.70;;;5.90;;
66118;SDS011;52912;48.564;9.302;2023-02-28T07:47:54;9.55;;;5.43;;
66118;SDS011;52912;48.564;9.302;2023-02-28T07:50:21;9.98;;;5.93;;
66118;SDS011;52912;48.564;9.302;2023-02-28T07:52:48;8.88;;;5.55;;
66118;SDS011;52912;48.564;9.302;2023-02-28T07:55:13;12.00;;;5.68;;
66118;SDS011;52912;48.564;9.302;2023-02-28T07:57:39;7.78;;;5.40;;
66118;SDS011;52912;48.564;9.302;2023-02-28T08:00:06;8.43;;;5.15;;
66118;SDS011;52912;48.564;9.302;2023-02-28T08:02:33;8.52;;;5.82;;
66118;SDS011;52912;48.564;9.302;2023-02-28T08:04:59;10.88;;;6.28;;
66118;SDS011;52912;48.564;9.302;2023-02-28T08:07:24;6.35;;;3.70;;
66118;SDS011;52912;48.564;9.302;2023-02-28T08:09:51;7.03;;;4.15;;
66118;SDS011;52912;48.564;9.302;2023-02-28T08:12:17;10.95;;;6.30;;
66118;SDS011;52912;48.564;9.302;2023-02-28T08:14:42;10.25;;;6.22;;
66118;SDS011;52912;48.564;9.302;2023-02-28T08:17:08;9.25;;;6.00;;
66118;SDS011;52912;48.564;9.302;2023-02-28T08:19:34;10.23;;;6.22;;
66118;SDS011;52912;48.564;9.302;2023-02-28T08:21:59;8.10;;;4.78;;
66118;SDS011;52912;48.564;9.302;2023-02-28T08:24:25;12.23;;;7.07;;
66118;SDS011;52912;48.564;9.302;2023-02-28T08:26:52;10.00;;;6.15;;
66118;SDS011;52912;48.564;9.302;2023-02-28T08:29:17;12.35;;;5.72;;
66118;SDS011;52912;48.564;9.302;2023-02-28T08:31:42;9.73;;;6.05;;
66118;SDS011;52912;48.564;9.302;2023-02-28T08:34:08;12.10;;;6.20;;
66118;SDS011;52912;48.564;9.302;2023-02-28T08:36:36;8.40;;;5.40;;
66118;SDS011;52912;48.564;9.302;2023-02-28T08:39:02;8.57;;;5.45;;
66118;SDS011;52912;48.564;9.302;2023-02-28T08:41:27;9.45;;;5.90;;
66118;SDS011;52912;48.564;9.302;2023-02-28T08:43:54;11.50;;;5.25;;
66118;SDS011;52912;48.564;9.302;2023-02-28T08:46:20;9.07;;;5.63;;
66118;SDS011;52912;48.564;9.302;2023-02-28T08:48:46;11.40;;;5.68;;
66118;SDS011;52912;48.564;9.302;2023-02-28T08:51:12;14.63;;;9.30;;
66118;SDS011;52912;48.564;9.302;2023-02-28T08:53:39;9.20;;;5.43;;
66118;SDS011;52912;48.564;9.302;2023-02-28T08:56:06;12.40;;;7.28;;
66118;SDS011;52912;48.564;9.302;2023-02-28T08:58:32;8.73;;;5.10;;
66118;SDS011;52912;48.564;9.302;2023-02-28T09:01:00;11.65;;;7.75;;
66118;SDS011;52912;48.564;9.302;2023-02-28T09:03:25;11.38;;;6.40;;
66118;SDS011;52912;48.564;9.302;2023-02-28T09:05:52;5.80;;;4.10;;
66118;SDS011;52912;48.564;9.302;2023-02-28T09:08:19;10.85;;;5.88;;
66118;SDS011;52912;48.564;9.302;2023-02-28T09:10:44;18.15;;;8.23;;
66118;SDS011;52912;48.564;9.302;2023-02-28T09:13:09;57.50;;;23.52;;
66118;SDS011;52912;48.564;9.302;2023-02-28T09:15:36;31.23;;;12.07;;
66118;SDS011;52912;48.564;9.302;2023-02-28T09:18:03;10.70;;;7.40;;
66118;SDS011;52912;48.564;9.302;2023-02-28T09:20:29;15.13;;;8.02;;
66118;SDS011;52912;48.564;9.302;2023-02-28T09:22:54;18.40;;;10.48;;
66118;SDS011;52912;48.564;9.302;2023-02-28T09:25:20;14.23;;;7.60;;
66118;SDS011;52912;48.564;9.302;2023-02-28T09:27:46;13.52;;;6.68;;
66118;SDS011;52912;48.564;9.302;2023-02-28T09:30:12;11.43;;;6.28;;
66118;SDS011;52912;48.564;9.302;2023-02-28T09:32:38;7.75;;;4.65;;
66118;SDS011;52912;48.564;9.302;2023-02-28T09:35:08;8.75;;;4.75;;
66118;SDS011;52912;48.564;9.302;2023-02-28T09:37:33;8.52;;;5.38;;
66118;SDS011;52912;48.564;9.302;2023-02-28T09:39:59;8.40;;;5.72;;
66118;SDS011;52912;48.564;9.302;2023-02-28T09:42:25;8.70;;;5.25;;
66118;SDS011;52912;48.564;9.302;2023-02-28T09:44:55;7.82;;;5.07;;
66118;SDS011;52912;48.564;9.302;2023-02-28T09:47:25;9.95;;;5.28;;
66118;SDS011;52912;48.564;9.302;2023-02-28T09:49:55;9.55;;;5.15;;
66118;SDS011;52912;48.564;9.302;2023-02-28T09:52:26;7.97;;;5.00;;
66118;SDS011;52912;48.564;9.302;2023-02-28T09:54:54;9.95;;;5.97;;
66118;SDS011;52912;48.564;9.302;2023-02-28T09:57:23;11.30;;;6.60;;
66118;SDS011;52912;48.564;9.302;2023-02-28T10:00:03;10.82;;;6.32;;
66118;SDS011;52912;48.564;9.302;2023-02-28T10:02:41;10.98;;;5.50;;
66118;SDS011;52912;48.564;9.302;2023-02-28T10:05:23;8.65;;;5.38;;
66118;SDS011;52912;48.564;9.302;2023-02-28T10:07:59;10.35;;;5.55;;
66118;SDS011;52912;48.564;9.302;2023-02-28T10:10:29;10.55;;;5.38;;
66118;SDS011;52912;48.564;9.302;2023-02-28T10:13:00;9.40;;;6.22;;
66118;SDS011;52912;48.564;9.302;2023-02-28T10:15:30;11.57;;;6.40;;
66118;SDS011;52912;48.564;9.302;2023-02-28T10:17:58;8.02;;;5.38;;
66118;SDS011;52912;48.564;9.302;2023-02-28T10:20:25;10.43;;;6.53;;
66118;SDS011;52912;48.564;9.302;2023-02-28T10:22:53;11.20;;;6.15;;
66118;SDS011;52912;48.564;9.302;2023-02-28T10:25:26;11.13;;;6.90;;
66118;SDS011;52912;48.564;9.302;2023-02-28T10:27:52;10.98;;;6.78;;
66118;SDS011;52912;48.564;9.302;2023-02-28T10:30:25;11.00;;;6.28;;
66118;SDS011;52912;48.564;9.302;2023-02-28T10:32:50;11.68;;;7.00;;
66118;SDS011;52912;48.564;9.302;2023-02-28T10:35:18;9.75;;;6.47;;
66118;SDS011;52912;48.564;9.302;2023-02-28T10:37:45;11.55;;;6.53;;
66118;SDS011;52912;48.564;9.302;2023-02-28T10:40:25;11.40;;;6.57;;
66118;SDS011;52912;48.564;9.302;2023-02-28T10:42:56;12.30;;;5.82;;
66118;SDS011;52912;48.564;9.302;2023-02-28T10:45:24;10.88;;;6.80;;
66118;SDS011;52912;48.564;9.302;2023-02-28T10:47:51;12.30;;;7.53;;
66118;SDS011;52912;48.564;9.302;2023-02-28T10:50:29;11.52;;;7.15;;
66118;SDS011;52912;48.564;9.302;2023-02-28T10:53:08;9.82;;;5.70;;
66118;SDS011;52912;48.564;9.302;2023-02-28T10:55:43;12.75;;;6.28;;
66118;SDS011;52912;48.564;9.302;2023-02-28T10:58:21;10.93;;;7.07;;
66118;SDS011;52912;48.564;9.302;2023-02-28T11:00:47;14.23;;;6.65;;
66118;SDS011;52912;48.564;9.302;2023-02-28T11:03:22;13.07;;;6.80;;
66118;SDS011;52912;48.564;9.302;2023-02-28T11:05:50;13.25;;;6.53;;
66118;SDS011;52912;48.564;9.302;2023-02-28T11:08:16;13.10;;;6.22;;
66118;SDS011;52912;48.564;9.302;2023-02-28T11:10:45;10.77;;;7.03;;
66118;SDS011;52912;48.564;9.302;2023-02-28T11:13:16;12.45;;;6.45;;
66118;SDS011;52912;48.564;9.302;2023-02-28T11:15:42;10.48;;;6.40;;
66118;SDS011;52912;48.564;9.302;2023-02-28T11:18:21;9.05;;;5.78;;
66118;SDS011;52912;48.564;9.302;2023-02-28T11:20:49;11.27;;;7.07;;
66118;SDS011;52912;48.564;9.302;2023-02-28T11:23:17;11.75;;;7.18;;
66118;SDS011;52912;48.564;9.302;2023-02-28T11:25:48;14.30;;;7.47;;
66118;SDS011;52912;48.564;9.302;2023-02-28T11:28:23;10.10;;;5.93;;
66118;SDS011;52912;48.564;9.302;2023-02-28T11:31:02;12.50;;;7.28;;
66118;SDS011;52912;48.564;9.302;2023-02-28T11:33:30;12.20;;;7.32;;
66118;SDS011;52912;48.564;9.302;2023-02-28T11:35:57;11.05;;;6.80;;
66118;SDS011;52912;48.564;9.302;2023-02-28T11:38:26;12.95;;;7.68;;
66118;SDS011;52912;48.564;9.302;2023-02-28T11:40:56;10.23;;;6.88;;
66118;SDS011;52912;48.564;9.302;2023-02-28T11:43:34;13.45;;;7.40;;
66118;SDS011;52912;48.564;9.302;2023-02-28T11:46:14;9.02;;;5.57;;
66118;SDS011;52912;48.564;9.302;2023-02-28T11:48:49;11.02;;;6.53;;
66118;SDS011;52912;48.564;9.302;2023-02-28T11:51:21;10.27;;;6.80;;
66118;SDS011;52912;48.564;9.302;2023-02-28T11:53:55;14.30;;;7.90;;
66118;SDS011;52912;48.564;9.302;2023-02-28T11:56:32;10.40;;;6.95;;
66118;SDS011;52912;48.564;9.302;2023-02-28T11:59:03;11.35;;;6.75;;
66118;SDS011;52912;48.564;9.302;2023-02-28T12:01:58;11.57;;;7.07;;
66118;SDS011;52912;48.564;9.302;2023-02-28T12:04:33;14.05;;;7.38;;
66118;SDS011;52912;48.564;9.302;2023-02-28T12:07:08;14.50;;;8.57;;
66118;SDS011;52912;48.564;9.302;2023-02-28T12:09:43;13.15;;;8.00;;
66118;SDS011;52912;48.564;9.302;2023-02-28T12:12:23;20.33;;;8.77;;
66118;SDS011;52912;48.564;9.302;2023-02-28T12:15:04;8.82;;;6.45;;
66118;SDS011;52912;48.564;9.302;2023-02-28T12:17:47;12.32;;;7.07;;
66118;SDS011;52912;48.564;9.302;2023-02-28T12:20:24;10.82;;;6.82;;
66118;SDS011;52912;48.564;9.302;2023-02-28T12:22:55;10.35;;;6.53;;
66118;SDS011;52912;48.564;9.302;2023-02-28T12:25:45;12.13;;;7.28;;
66118;SDS011;52912;48.564;9.302;2023-02-28T12:28:27;13.10;;;7.57;;
66118;SDS011;52912;48.564;9.302;2023-02-28T12:30:57;12.43;;;7.00;;
66118;SDS011;52912;48.564;9.302;2023-02-28T12:33:28;11.32;;;6.35;;
66118;SDS011;52912;48.564;9.302;2023-02-28T12:35:59;11.35;;;6.65;;
66118;SDS011;52912;48.564;9.302;2023-02-28T12:38:31;10.88;;;7.03;;
66118;SDS011;52912;48.564;9.302;2023-02-28T12:41:02;11.43;;;7.80;;
66118;SDS011;52912;48.564;9.302;2023-02-28T12:43:33;11.90;;;7.30;;
66118;SDS011;52912;48.564;9.302;2023-02-28T12:46:02;11.13;;;6.82;;
66118;SDS011;52912;48.564;9.302;2023-02-28T12:48:37;10.95;;;7.30;;
66118;SDS011;52912;48.564;9.302;2023-02-28T12:51:05;10.75;;;6.65;;
66118;SDS011;52912;48.564;9.302;2023-02-28T12:53:34;8.45;;;6.47;;
66118;SDS011;52912;48.564;9.302;2023-02-28T12:56:09;12.10;;;7.40;;
66118;SDS011;52912;48.564;9.302;2023-02-28T12:58:44;9.80;;;6.38;;
66118;SDS011;52912;48.564;9.302;2023-02-28T13:01:22;12.95;;;7.30;;
66118;SDS011;52912;48.564;9.302;2023-02-28T13:07:13;9.98;;;6.72;;
66118;SDS011;52912;48.564;9.302;2023-02-28T13:09:53;11.48;;;7.20;;
66118;SDS011;52912;48.564;9.302;2023-02-28T13:12:20;10.68;;;6.75;;
66118;SDS011;52912;48.564;9.302;2023-02-28T13:14:48;10.88;;;7.32;;
66118;SDS011;52912;48.564;9.302;2023-02-28T13:17:17;12.85;;;6.80;;
66118;SDS011;52912;48.564;9.302;2023-02-28T13:19:45;10.10;;;6.65;;
66118;SDS011;52912;48.564;9.302;2023-02-28T13:22:37;13.15;;;6.60;;
66118;SDS011;52912;48.564;9.302;2023-02-28T13:28:56;11.88;;;7.75;;
66118;SDS011;52912;48.564;9.302;2023-02-28T13:31:32;11.05;;;6.93;;
66118;SDS011;52912;48.564;9.302;2023-02-28T13:34:18;10.15;;;6.15;;
66118;SDS011;52912;48.564;9.302;2023-02-28T13:36:43;11.35;;;7.03;;
66118;SDS011;52912;48.564;9.302;2023-02-28T13:42:23;10.18;;;6.60;;
66118;SDS011;52912;48.564;9.302;2023-02-28T13:47:50;10.95;;;7.00;;
66118;SDS011;52912;48.564;9.302;2023-02-28T13:50:21;13.52;;;7.13;;
66118;SDS011;52912;48.564;9.302;2023-02-28T13:52:48;8.82;;;6.22;;
66118;SDS011;52912;48.564;9.302;2023-02-28T13:55:26;14.98;;;7.47;;
66118;SDS011;52912;48.564;9.302;2023-02-28T13:58:18;11.15;;;6.28;;
66118;SDS011;52912;48.564;9.302;2023-02-28T14:01:03;12.60;;;6.53;;
66118;SDS011;52912;48.564;9.302;2023-02-28T14:03:44;11.45;;;6.90;;
66118;SDS011;52912;48.564;9.302;2023-02-28T14:06:23;9.50;;;5.60;;
66118;SDS011;52912;48.564;9.302;2023-02-28T14:08:54;11.98;;;6.63;;
66118;SDS011;52912;48.564;9.302;2023-02-28T14:11:25;9.73;;;6.32;;
66118;SDS011;52912;48.564;9.302;2023-02-28T14:13:55;9.52;;;6.47;;
66118;SDS011;52912;48.564;9.302;2023-02-28T14:16:21;14.52;;;7.20;;
66118;SDS011;52912;48.564;9.302;2023-02-28T14:18:51;10.15;;;6.78;;
66118;SDS011;52912;48.564;9.302;2023-02-28T14:21:23;12.45;;;7.45;;
66118;SDS011;52912;48.564;9.302;2023-02-28T14:26:59;10.68;;;6.68;;
66118;SDS011;52912;48.564;9.302;2023-02-28T14:32:39;12.80;;;7.20;;
66118;SDS011;52912;48.564;9.302;2023-02-28T14:35:16;9.07;;;6.78;;
66118;SDS011;52912;48.564;9.302;2023-02-28T14:37:47;12.60;;;7.38;;
66118;SDS011;52912;48.564;9.302;2023-02-28T14:40:14;11.35;;;6.47;;
66118;SDS011;52912;48.564;9.302;2023-02-28T14:42:49;10.77;;;6.90;;
66118;SDS011;52912;48.564;9.302;2023-02-28T14:45:22;10.82;;;6.15;;
66118;SDS011;52912;48.564;9.302;2023-02-28T14:47:48;11.15;;;6.88;;
66118;SDS011;52912;48.564;9.302;2023-02-28T14:50:19;9.02;;;6.18;;
66118;SDS011;52912;48.564;9.302;2023-02-28T14:52:47;9.43;;;6.30;;
66118;SDS011;52912;48.564;9.302;2023-02-28T14:55:17;9.77;;;5.88;;
66118;SDS011;52912;48.564;9.302;2023-02-28T14:57:50;10.75;;;6.40;;
66118;SDS011;52912;48.564;9.302;2023-02-28T15:00:20;9.77;;;6.15;;
66118;SDS011;52912;48.564;9.302;2023-02-28T15:02:47;9.65;;;6.35;;
66118;SDS011;52912;48.564;9.302;2023-02-28T15:05:21;10.32;;;6.55;;
66118;SDS011;52912;48.564;9.302;2023-02-28T15:07:59;9.65;;;6.10;;
66118;SDS011;52912;48.564;9.302;2023-02-28T15:10:27;10.57;;;6.93;;
66118;SDS011;52912;48.564;9.302;2023-02-28T15:12:53;10.75;;;6.70;;
66118;SDS011;52912;48.564;9.302;2023-02-28T15:15:20;12.82;;;6.97;;
66118;SDS011;52912;48.564;9.302;2023-02-28T15:17:48;8.95;;;6.20;;